sensor_id;sensor_type;location;lat;lon;timestamp;P1;durP1;ratioP1;P2;durP2;ratioP2
72132;SDS011;60008;50.826;6.896;2023-07-08T00:00:34;7.63;;;4.30;;
72132;SDS011;60008;50.826;6.896;2023-07-08T00:03:19;7.63;;;4.00;;
72132;SDS011;60008;50.826;6.896;2023-07-08T00:06:16;10.95;;;4.50;;
72132;SDS011;60008;50.826;6.896;2023-07-08T00:09:07;10.75;;;3.92;;
72132;SDS011;60008;50.826;6.896;2023-07-08T00:12:07;7.85;;;4.03;;
72132;SDS011;60008;50.826;6.896;2023-07-08T00:14:54;7.20;;;3.73;;
72132;SDS011;60008;50.826;6.896;2023-07-08T00:17:46;11.93;;;4.35;;
72132;SDS011;60008;50.826;6.896;2023-07-08T00:20:31;10.30;;;4.40;;
72132;SDS011;60008;50.826;6.896;2023-07-08T00:23:28;10.20;;;4.38;;
72132;SDS011;60008;50.826;6.896;2023-07-08T00:26:23;8.80;;;3.80;;
72132;SDS011;60008;50.826;6.896;2023-07-08T00:29:17;8.27;;;3.87;;
72132;SDS011;60008;50.826;6.896;2023-07-08T00:32:10;8.45;;;4.13;;
72132;SDS011;60008;50.826;6.896;2023-07-08T00:34:56;8.15;;;3.88;;
72132;SDS011;60008;50.826;6.896;2023-07-08T00:37:48;9.32;;;4.35;;
72132;SDS011;60008;50.826;6.896;2023-07-08T00:40:37;8.23;;;4.25;;
72132;SDS011;60008;50.826;6.896;2023-07-08T00:43:42;9.27;;;4.37;;
72132;SDS011;60008;50.826;6.896;2023-07-08T00:46:50;9.27;;;4.03;;
72132;SDS011;60008;50.826;6.896;2023-07-08T00:49:50;9.25;;;4.20;;
72132;SDS011;60008;50.826;6.896;2023-07-08T00:52:40;12.27;;;4.40;;
72132;SDS011;60008;50.826;6.896;2023-07-08T00:55:32;10.27;;;4.15;;
72132;SDS011;60008;50.826;6.896;2023-07-08T00:58:23;6.77;;;3.83;;
72132;SDS011;60008;50.826;6.896;2023-07-08T01:01:18;10.80;;;4.28;;
72132;SDS011;60008;50.826;6.896;2023-07-08T01:04:04;8.27;;;4.07;;
72132;SDS011;60008;50.826;6.896;2023-07-08T01:07:00;7.97;;;3.92;;
72132;SDS011;60008;50.826;6.896;2023-07-08T01:09:50;8.05;;;4.20;;
72132;SDS011;60008;50.826;6.896;2023-07-08T01:12:47;7.40;;;3.93;;
72132;SDS011;60008;50.826;6.896;2023-07-08T01:15:41;10.73;;;4.40;;
72132;SDS011;60008;50.826;6.896;2023-07-08T01:18:35;7.43;;;4.13;;
72132;SDS011;60008;50.826;6.896;2023-07-08T01:24:31;8.77;;;4.10;;
72132;SDS011;60008;50.826;6.896;2023-07-08T01:27:25;7.87;;;4.23;;
72132;SDS011;60008;50.826;6.896;2023-07-08T01:30:11;9.43;;;4.30;;
72132;SDS011;60008;50.826;6.896;2023-07-08T01:33:05;9.85;;;4.53;;
72132;SDS011;60008;50.826;6.896;2023-07-08T01:35:58;11.02;;;4.40;;
72132;SDS011;60008;50.826;6.896;2023-07-08T01:38:50;10.27;;;4.07;;
72132;SDS011;60008;50.826;6.896;2023-07-08T01:41:35;11.53;;;4.60;;
72132;SDS011;60008;50.826;6.896;2023-07-08T01:44:31;8.73;;;4.30;;
72132;SDS011;60008;50.826;6.896;2023-07-08T01:47:19;9.48;;;4.55;;
72132;SDS011;60008;50.826;6.896;2023-07-08T01:50:12;8.63;;;4.35;;
72132;SDS011;60008;50.826;6.896;2023-07-08T01:52:58;9.43;;;4.60;;
72132;SDS011;60008;50.826;6.896;2023-07-08T01:55:51;10.20;;;5.00;;
72132;SDS011;60008;50.826;6.896;2023-07-08T01:58:43;7.90;;;4.28;;
72132;SDS011;60008;50.826;6.896;2023-07-08T02:01:42;10.80;;;4.20;;
72132;SDS011;60008;50.826;6.896;2023-07-08T02:04:34;7.70;;;4.07;;
72132;SDS011;60008;50.826;6.896;2023-07-08T02:07:19;10.48;;;4.55;;
72132;SDS011;60008;50.826;6.896;2023-07-08T02:10:11;9.03;;;4.20;;
72132;SDS011;60008;50.826;6.896;2023-07-08T02:12:56;9.02;;;4.65;;
72132;SDS011;60008;50.826;6.896;2023-07-08T02:15:48;8.95;;;4.43;;
72132;SDS011;60008;50.826;6.896;2023-07-08T02:18:41;11.20;;;4.40;;
72132;SDS011;60008;50.826;6.896;2023-07-08T02:21:34;10.43;;;4.70;;
72132;SDS011;60008;50.826;6.896;2023-07-08T02:24:19;9.10;;;4.10;;
72132;SDS011;60008;50.826;6.896;2023-07-08T02:27:11;11.23;;;4.47;;
72132;SDS011;60008;50.826;6.896;2023-07-08T02:30:03;9.30;;;4.45;;
72132;SDS011;60008;50.826;6.896;2023-07-08T02:32:49;11.55;;;4.55;;
72132;SDS011;60008;50.826;6.896;2023-07-08T02:35:48;9.88;;;4.20;;
72132;SDS011;60008;50.826;6.896;2023-07-08T02:38:33;21.43;;;4.70;;
72132;SDS011;60008;50.826;6.896;2023-07-08T02:41:24;8.27;;;4.30;;
72132;SDS011;60008;50.826;6.896;2023-07-08T02:44:11;8.68;;;4.45;;
72132;SDS011;60008;50.826;6.896;2023-07-08T02:47:03;7.95;;;4.10;;
72132;SDS011;60008;50.826;6.896;2023-07-08T02:49:55;8.80;;;4.30;;
72132;SDS011;60008;50.826;6.896;2023-07-08T02:52:46;8.40;;;4.30;;
72132;SDS011;60008;50.826;6.896;2023-07-08T02:55:31;11.88;;;4.68;;
72132;SDS011;60008;50.826;6.896;2023-07-08T02:58:29;10.70;;;4.80;;
72132;SDS011;60008;50.826;6.896;2023-07-08T03:01:16;9.02;;;4.88;;
72132;SDS011;60008;50.826;6.896;2023-07-08T03:04:09;9.40;;;4.80;;
72132;SDS011;60008;50.826;6.896;2023-07-08T03:06:58;8.40;;;4.43;;
72132;SDS011;60008;50.826;6.896;2023-07-08T03:09:51;12.02;;;5.22;;
72132;SDS011;60008;50.826;6.896;2023-07-08T03:12:35;14.13;;;5.07;;
72132;SDS011;60008;50.826;6.896;2023-07-08T03:15:27;11.02;;;4.60;;
72132;SDS011;60008;50.826;6.896;2023-07-08T03:18:12;9.00;;;4.35;;
72132;SDS011;60008;50.826;6.896;2023-07-08T03:21:03;11.30;;;4.27;;
72132;SDS011;60008;50.826;6.896;2023-07-08T03:23:48;9.02;;;4.60;;
72132;SDS011;60008;50.826;6.896;2023-07-08T03:26:41;10.23;;;4.95;;
72132;SDS011;60008;50.826;6.896;2023-07-08T03:29:32;12.73;;;4.60;;
72132;SDS011;60008;50.826;6.896;2023-07-08T03:32:17;8.73;;;4.65;;
72132;SDS011;60008;50.826;6.896;2023-07-08T03:35:08;9.17;;;4.90;;
72132;SDS011;60008;50.826;6.896;2023-07-08T03:38:00;11.25;;;4.95;;
72132;SDS011;60008;50.826;6.896;2023-07-08T03:40:45;11.40;;;4.53;;
72132;SDS011;60008;50.826;6.896;2023-07-08T03:43:37;9.98;;;4.32;;
72132;SDS011;60008;50.826;6.896;2023-07-08T03:46:22;9.93;;;4.80;;
72132;SDS011;60008;50.826;6.896;2023-07-08T03:49:15;10.00;;;5.13;;
72132;SDS011;60008;50.826;6.896;2023-07-08T03:52:12;10.32;;;4.68;;
72132;SDS011;60008;50.826;6.896;2023-07-08T03:55:08;8.25;;;4.88;;
72132;SDS011;60008;50.826;6.896;2023-07-08T03:57:55;10.55;;;4.65;;
72132;SDS011;60008;50.826;6.896;2023-07-08T04:00:47;11.50;;;4.90;;
72132;SDS011;60008;50.826;6.896;2023-07-08T04:03:38;8.90;;;4.70;;
72132;SDS011;60008;50.826;6.896;2023-07-08T04:06:24;9.13;;;4.40;;
72132;SDS011;60008;50.826;6.896;2023-07-08T04:09:16;10.80;;;4.90;;
72132;SDS011;60008;50.826;6.896;2023-07-08T04:12:00;10.98;;;4.50;;
72132;SDS011;60008;50.826;6.896;2023-07-08T04:14:52;10.43;;;4.97;;
72132;SDS011;60008;50.826;6.896;2023-07-08T04:17:45;10.03;;;4.90;;
72132;SDS011;60008;50.826;6.896;2023-07-08T04:20:39;11.82;;;4.97;;
72132;SDS011;60008;50.826;6.896;2023-07-08T04:23:31;10.35;;;4.97;;
72132;SDS011;60008;50.826;6.896;2023-07-08T04:26:36;9.40;;;4.97;;
72132;SDS011;60008;50.826;6.896;2023-07-08T04:29:23;12.93;;;5.30;;
72132;SDS011;60008;50.826;6.896;2023-07-08T04:32:15;10.77;;;5.00;;
72132;SDS011;60008;50.826;6.896;2023-07-08T04:35:00;9.02;;;4.35;;
72132;SDS011;60008;50.826;6.896;2023-07-08T04:37:51;11.70;;;5.07;;
72132;SDS011;60008;50.826;6.896;2023-07-08T04:40:36;9.52;;;4.57;;
72132;SDS011;60008;50.826;6.896;2023-07-08T04:43:31;10.95;;;4.90;;
72132;SDS011;60008;50.826;6.896;2023-07-08T04:46:20;10.13;;;4.60;;
72132;SDS011;60008;50.826;6.896;2023-07-08T04:49:21;18.27;;;6.63;;
72132;SDS011;60008;50.826;6.896;2023-07-08T04:52:08;11.55;;;4.93;;
72132;SDS011;60008;50.826;6.896;2023-07-08T04:55:01;10.60;;;5.00;;
72132;SDS011;60008;50.826;6.896;2023-07-08T04:57:53;10.60;;;5.03;;
72132;SDS011;60008;50.826;6.896;2023-07-08T05:00:53;11.07;;;4.83;;
72132;SDS011;60008;50.826;6.896;2023-07-08T05:03:45;11.63;;;4.45;;
72132;SDS011;60008;50.826;6.896;2023-07-08T05:06:30;14.07;;;5.10;;
72132;SDS011;60008;50.826;6.896;2023-07-08T05:09:22;9.93;;;5.20;;
72132;SDS011;60008;50.826;6.896;2023-07-08T05:12:11;9.98;;;5.13;;
72132;SDS011;60008;50.826;6.896;2023-07-08T05:15:02;10.27;;;5.17;;
72132;SDS011;60008;50.826;6.896;2023-07-08T05:17:51;11.32;;;4.90;;
72132;SDS011;60008;50.826;6.896;2023-07-08T05:20:49;11.93;;;5.15;;
72132;SDS011;60008;50.826;6.896;2023-07-08T05:23:35;9.93;;;4.60;;
72132;SDS011;60008;50.826;6.896;2023-07-08T05:26:26;8.75;;;4.70;;
72132;SDS011;60008;50.826;6.896;2023-07-08T05:29:11;10.93;;;4.90;;
72132;SDS011;60008;50.826;6.896;2023-07-08T05:32:03;9.32;;;4.97;;
72132;SDS011;60008;50.826;6.896;2023-07-08T05:34:55;11.98;;;5.03;;
72132;SDS011;60008;50.826;6.896;2023-07-08T05:37:40;10.50;;;4.85;;
72132;SDS011;60008;50.826;6.896;2023-07-08T05:40:35;9.93;;;4.57;;
72132;SDS011;60008;50.826;6.896;2023-07-08T05:43:20;9.17;;;4.50;;
72132;SDS011;60008;50.826;6.896;2023-07-08T05:46:12;12.77;;;5.03;;
72132;SDS011;60008;50.826;6.896;2023-07-08T05:48:57;17.30;;;5.45;;
72132;SDS011;60008;50.826;6.896;2023-07-08T05:51:49;11.25;;;4.50;;
72132;SDS011;60008;50.826;6.896;2023-07-08T05:54:34;11.60;;;4.70;;
72132;SDS011;60008;50.826;6.896;2023-07-08T05:57:25;11.17;;;4.83;;
72132;SDS011;60008;50.826;6.896;2023-07-08T06:00:17;9.93;;;4.45;;
72132;SDS011;60008;50.826;6.896;2023-07-08T06:03:14;9.20;;;4.13;;
72132;SDS011;60008;50.826;6.896;2023-07-08T06:06:05;9.95;;;4.10;;
72132;SDS011;60008;50.826;6.896;2023-07-08T06:08:57;8.07;;;3.85;;
72132;SDS011;60008;50.826;6.896;2023-07-08T06:11:48;11.23;;;4.00;;
72132;SDS011;60008;50.826;6.896;2023-07-08T06:14:40;8.77;;;4.13;;
72132;SDS011;60008;50.826;6.896;2023-07-08T06:17:25;8.10;;;4.00;;
72132;SDS011;60008;50.826;6.896;2023-07-08T06:20:16;9.07;;;4.18;;
72132;SDS011;60008;50.826;6.896;2023-07-08T06:23:07;10.07;;;4.00;;
72132;SDS011;60008;50.826;6.896;2023-07-08T06:25:58;7.03;;;3.77;;
72132;SDS011;60008;50.826;6.896;2023-07-08T06:28:43;9.93;;;3.47;;
72132;SDS011;60008;50.826;6.896;2023-07-08T06:31:34;6.85;;;3.75;;
72132;SDS011;60008;50.826;6.896;2023-07-08T06:34:20;6.28;;;3.47;;
72132;SDS011;60008;50.826;6.896;2023-07-08T06:37:14;6.72;;;3.65;;
72132;SDS011;60008;50.826;6.896;2023-07-08T06:39:59;5.87;;;3.40;;
72132;SDS011;60008;50.826;6.896;2023-07-08T06:42:51;6.82;;;3.53;;
72132;SDS011;60008;50.826;6.896;2023-07-08T06:45:43;10.10;;;3.67;;
72132;SDS011;60008;50.826;6.896;2023-07-08T06:48:35;7.25;;;3.72;;
72132;SDS011;60008;50.826;6.896;2023-07-08T06:51:20;9.00;;;3.90;;
72132;SDS011;60008;50.826;6.896;2023-07-08T06:54:12;8.53;;;3.80;;
72132;SDS011;60008;50.826;6.896;2023-07-08T06:56:57;7.15;;;3.70;;
72132;SDS011;60008;50.826;6.896;2023-07-08T06:59:55;7.95;;;3.40;;
72132;SDS011;60008;50.826;6.896;2023-07-08T07:02:40;7.35;;;3.60;;
72132;SDS011;60008;50.826;6.896;2023-07-08T07:05:31;10.63;;;4.18;;
72132;SDS011;60008;50.826;6.896;2023-07-08T07:08:17;12.87;;;3.70;;
72132;SDS011;60008;50.826;6.896;2023-07-08T07:11:08;7.38;;;3.90;;
72132;SDS011;60008;50.826;6.896;2023-07-08T07:13:53;10.13;;;4.20;;
72132;SDS011;60008;50.826;6.896;2023-07-08T07:16:45;7.03;;;3.78;;
72132;SDS011;60008;50.826;6.896;2023-07-08T07:19:50;9.50;;;4.32;;
72132;SDS011;60008;50.826;6.896;2023-07-08T07:22:41;8.77;;;4.13;;
72132;SDS011;60008;50.826;6.896;2023-07-08T07:25:26;10.38;;;4.88;;
72132;SDS011;60008;50.826;6.896;2023-07-08T07:28:18;9.48;;;5.43;;
72132;SDS011;60008;50.826;6.896;2023-07-08T07:31:04;9.57;;;5.55;;
72132;SDS011;60008;50.826;6.896;2023-07-08T07:33:59;9.90;;;4.32;;
72132;SDS011;60008;50.826;6.896;2023-07-08T07:36:51;13.13;;;5.90;;
72132;SDS011;60008;50.826;6.896;2023-07-08T07:39:42;7.50;;;4.13;;
72132;SDS011;60008;50.826;6.896;2023-07-08T07:42:33;6.75;;;3.65;;
72132;SDS011;60008;50.826;6.896;2023-07-08T07:45:18;11.05;;;4.07;;
72132;SDS011;60008;50.826;6.896;2023-07-08T07:48:13;10.85;;;4.80;;
72132;SDS011;60008;50.826;6.896;2023-07-08T07:51:04;6.93;;;4.30;;
72132;SDS011;60008;50.826;6.896;2023-07-08T07:53:50;8.77;;;4.93;;
72132;SDS011;60008;50.826;6.896;2023-07-08T07:56:41;8.63;;;5.22;;
72132;SDS011;60008;50.826;6.896;2023-07-08T07:59:26;8.73;;;5.28;;
72132;SDS011;60008;50.826;6.896;2023-07-08T08:02:27;8.18;;;4.85;;
72132;SDS011;60008;50.826;6.896;2023-07-08T08:05:19;7.70;;;5.23;;
72132;SDS011;60008;50.826;6.896;2023-07-08T08:08:04;8.25;;;5.53;;
72132;SDS011;60008;50.826;6.896;2023-07-08T08:10:56;8.13;;;5.30;;
72132;SDS011;60008;50.826;6.896;2023-07-08T08:13:41;7.55;;;4.80;;
72132;SDS011;60008;50.826;6.896;2023-07-08T08:16:36;6.82;;;5.38;;
72132;SDS011;60008;50.826;6.896;2023-07-08T08:19:21;7.63;;;5.13;;
72132;SDS011;60008;50.826;6.896;2023-07-08T08:22:14;9.02;;;4.60;;
72132;SDS011;60008;50.826;6.896;2023-07-08T08:25:07;10.60;;;5.78;;
72132;SDS011;60008;50.826;6.896;2023-07-08T08:27:59;10.10;;;5.22;;
72132;SDS011;60008;50.826;6.896;2023-07-08T08:30:47;6.38;;;4.05;;
72132;SDS011;60008;50.826;6.896;2023-07-08T08:33:40;8.00;;;5.23;;
72132;SDS011;60008;50.826;6.896;2023-07-08T08:36:25;7.13;;;4.23;;
72132;SDS011;60008;50.826;6.896;2023-07-08T08:39:17;9.52;;;4.65;;
72132;SDS011;60008;50.826;6.896;2023-07-08T08:48:53;8.88;;;5.07;;
72132;SDS011;60008;50.826;6.896;2023-07-08T08:51:50;11.43;;;4.93;;
72132;SDS011;60008;50.826;6.896;2023-07-08T08:54:36;10.00;;;5.28;;
72132;SDS011;60008;50.826;6.896;2023-07-08T08:57:37;7.47;;;5.15;;
72132;SDS011;60008;50.826;6.896;2023-07-08T09:00:53;7.40;;;4.75;;
72132;SDS011;60008;50.826;6.896;2023-07-08T09:03:51;7.30;;;4.47;;
72132;SDS011;60008;50.826;6.896;2023-07-08T09:06:40;8.37;;;4.57;;
72132;SDS011;60008;50.826;6.896;2023-07-08T09:09:37;7.70;;;4.95;;
72132;SDS011;60008;50.826;6.896;2023-07-08T09:12:26;5.88;;;4.10;;
72132;SDS011;60008;50.826;6.896;2023-07-08T09:15:20;10.10;;;4.68;;
72132;SDS011;60008;50.826;6.896;2023-07-08T09:18:12;7.70;;;4.43;;
72132;SDS011;60008;50.826;6.896;2023-07-08T09:21:14;6.30;;;4.40;;
72132;SDS011;60008;50.826;6.896;2023-07-08T09:24:07;7.07;;;5.05;;
72132;SDS011;60008;50.826;6.896;2023-07-08T09:27:04;7.85;;;4.15;;
72132;SDS011;60008;50.826;6.896;2023-07-08T09:29:50;8.05;;;4.25;;
72132;SDS011;60008;50.826;6.896;2023-07-08T09:32:45;7.82;;;5.63;;
72132;SDS011;60008;50.826;6.896;2023-07-08T09:35:45;9.47;;;4.87;;
72132;SDS011;60008;50.826;6.896;2023-07-08T09:38:38;10.10;;;4.32;;
72132;SDS011;60008;50.826;6.896;2023-07-08T09:41:28;8.02;;;5.00;;
72132;SDS011;60008;50.826;6.896;2023-07-08T09:47:22;6.40;;;4.55;;
72132;SDS011;60008;50.826;6.896;2023-07-08T09:50:18;6.67;;;4.07;;
72132;SDS011;60008;50.826;6.896;2023-07-08T09:53:11;7.05;;;4.72;;
72132;SDS011;60008;50.826;6.896;2023-07-08T09:56:04;6.43;;;3.97;;
72132;SDS011;60008;50.826;6.896;2023-07-08T09:59:08;6.22;;;4.00;;
72132;SDS011;60008;50.826;6.896;2023-07-08T10:02:01;6.65;;;4.78;;
72132;SDS011;60008;50.826;6.896;2023-07-08T10:05:02;7.37;;;4.67;;
72132;SDS011;60008;50.826;6.896;2023-07-08T10:08:10;8.55;;;5.00;;
72132;SDS011;60008;50.826;6.896;2023-07-08T10:11:51;9.05;;;4.93;;
72132;SDS011;60008;50.826;6.896;2023-07-08T10:14:27;8.43;;;4.78;;
72132;SDS011;60008;50.826;6.896;2023-07-08T10:17:17;8.38;;;4.72;;
72132;SDS011;60008;50.826;6.896;2023-07-08T10:20:11;10.37;;;4.63;;
72132;SDS011;60008;50.826;6.896;2023-07-08T10:23:08;9.80;;;5.88;;
72132;SDS011;60008;50.826;6.896;2023-07-08T10:29:24;8.18;;;4.72;;
72132;SDS011;60008;50.826;6.896;2023-07-08T10:35:58;5.73;;;4.17;;
72132;SDS011;60008;50.826;6.896;2023-07-08T10:39:27;7.25;;;4.70;;
72132;SDS011;60008;50.826;6.896;2023-07-08T10:42:48;6.65;;;4.30;;
72132;SDS011;60008;50.826;6.896;2023-07-08T10:52:22;8.50;;;5.53;;
72132;SDS011;60008;50.826;6.896;2023-07-08T10:55:20;9.55;;;4.63;;
72132;SDS011;60008;50.826;6.896;2023-07-08T11:07:32;8.60;;;4.77;;
72132;SDS011;60008;50.826;6.896;2023-07-08T11:14:06;8.13;;;5.10;;
72132;SDS011;60008;50.826;6.896;2023-07-08T11:17:08;6.88;;;4.70;;
72132;SDS011;60008;50.826;6.896;2023-07-08T11:20:12;10.68;;;4.43;;
72132;SDS011;60008;50.826;6.896;2023-07-08T11:23:12;11.17;;;4.87;;
72132;SDS011;60008;50.826;6.896;2023-07-08T11:29:36;16.95;;;5.40;;
72132;SDS011;60008;50.826;6.896;2023-07-08T11:32:33;9.73;;;5.10;;
72132;SDS011;60008;50.826;6.896;2023-07-08T11:35:21;9.65;;;5.28;;
72132;SDS011;60008;50.826;6.896;2023-07-08T11:38:19;11.37;;;6.07;;
72132;SDS011;60008;50.826;6.896;2023-07-08T11:41:11;9.73;;;4.70;;
72132;SDS011;60008;50.826;6.896;2023-07-08T11:44:10;7.13;;;4.75;;
72132;SDS011;60008;50.826;6.896;2023-07-08T11:46:56;7.88;;;3.92;;
72132;SDS011;60008;50.826;6.896;2023-07-08T11:49:48;10.70;;;4.50;;
72132;SDS011;60008;50.826;6.896;2023-07-08T11:52:49;10.93;;;4.20;;
72132;SDS011;60008;50.826;6.896;2023-07-08T11:59:12;10.68;;;4.10;;
72132;SDS011;60008;50.826;6.896;2023-07-08T12:02:18;7.97;;;4.03;;
72132;SDS011;60008;50.826;6.896;2023-07-08T12:05:12;9.13;;;4.50;;
72132;SDS011;60008;50.826;6.896;2023-07-08T12:07:58;7.40;;;4.40;;
72132;SDS011;60008;50.826;6.896;2023-07-08T12:10:54;8.15;;;4.30;;
72132;SDS011;60008;50.826;6.896;2023-07-08T12:13:41;7.50;;;3.70;;
72132;SDS011;60008;50.826;6.896;2023-07-08T12:16:33;9.73;;;4.90;;
72132;SDS011;60008;50.826;6.896;2023-07-08T12:19:19;7.97;;;3.60;;
72132;SDS011;60008;50.826;6.896;2023-07-08T12:22:14;7.97;;;4.07;;
72132;SDS011;60008;50.826;6.896;2023-07-08T12:25:14;8.52;;;3.90;;
72132;SDS011;60008;50.826;6.896;2023-07-08T12:28:08;8.13;;;3.72;;
72132;SDS011;60008;50.826;6.896;2023-07-08T12:30:57;8.88;;;4.20;;
72132;SDS011;60008;50.826;6.896;2023-07-08T12:33:50;6.78;;;3.92;;
72132;SDS011;60008;50.826;6.896;2023-07-08T12:36:35;6.90;;;4.10;;
72132;SDS011;60008;50.826;6.896;2023-07-08T12:39:27;6.35;;;3.55;;
72132;SDS011;60008;50.826;6.896;2023-07-08T12:42:18;7.80;;;4.20;;
72132;SDS011;60008;50.826;6.896;2023-07-08T12:45:13;7.15;;;3.60;;
72132;SDS011;60008;50.826;6.896;2023-07-08T12:48:00;6.35;;;3.53;;
72132;SDS011;60008;50.826;6.896;2023-07-08T12:50:51;11.23;;;4.63;;
72132;SDS011;60008;50.826;6.896;2023-07-08T12:53:36;10.65;;;3.70;;
72132;SDS011;60008;50.826;6.896;2023-07-08T12:56:28;9.82;;;4.30;;
72132;SDS011;60008;50.826;6.896;2023-07-08T12:59:17;8.20;;;3.83;;
72132;SDS011;60008;50.826;6.896;2023-07-08T13:02:15;6.05;;;3.90;;
72132;SDS011;60008;50.826;6.896;2023-07-08T13:05:03;8.03;;;3.77;;
72132;SDS011;60008;50.826;6.896;2023-07-08T13:07:56;8.00;;;4.05;;
72132;SDS011;60008;50.826;6.896;2023-07-08T13:10:50;13.02;;;4.03;;
72132;SDS011;60008;50.826;6.896;2023-07-08T13:13:43;6.60;;;3.50;;
72132;SDS011;60008;50.826;6.896;2023-07-08T13:16:40;11.15;;;3.90;;
72132;SDS011;60008;50.826;6.896;2023-07-08T13:19:32;7.73;;;3.43;;
72132;SDS011;60008;50.826;6.896;2023-07-08T13:22:19;9.60;;;4.00;;
72132;SDS011;60008;50.826;6.896;2023-07-08T13:25:16;7.00;;;3.63;;
72132;SDS011;60008;50.826;6.896;2023-07-08T13:28:19;7.93;;;3.95;;
72132;SDS011;60008;50.826;6.896;2023-07-08T13:31:32;6.95;;;4.25;;
72132;SDS011;60008;50.826;6.896;2023-07-08T13:34:19;8.17;;;3.70;;
72132;SDS011;60008;50.826;6.896;2023-07-08T13:37:15;7.20;;;3.63;;
72132;SDS011;60008;50.826;6.896;2023-07-08T13:40:10;5.75;;;3.10;;
72132;SDS011;60008;50.826;6.896;2023-07-08T13:42:55;9.38;;;4.00;;
72132;SDS011;60008;50.826;6.896;2023-07-08T13:45:47;7.45;;;4.32;;
72132;SDS011;60008;50.826;6.896;2023-07-08T13:48:42;8.63;;;3.70;;
72132;SDS011;60008;50.826;6.896;2023-07-08T13:51:29;8.25;;;3.70;;
72132;SDS011;60008;50.826;6.896;2023-07-08T13:54:24;7.07;;;3.47;;
72132;SDS011;60008;50.826;6.896;2023-07-08T13:57:27;9.15;;;4.63;;
72132;SDS011;60008;50.826;6.896;2023-07-08T14:00:31;9.90;;;4.00;;
72132;SDS011;60008;50.826;6.896;2023-07-08T14:03:22;7.30;;;4.27;;
72132;SDS011;60008;50.826;6.896;2023-07-08T14:06:15;7.40;;;3.72;;
72132;SDS011;60008;50.826;6.896;2023-07-08T14:09:12;12.85;;;4.07;;
72132;SDS011;60008;50.826;6.896;2023-07-08T14:11:59;7.05;;;3.63;;
72132;SDS011;60008;50.826;6.896;2023-07-08T14:14:51;6.97;;;3.58;;
72132;SDS011;60008;50.826;6.896;2023-07-08T14:17:36;9.33;;;4.20;;
72132;SDS011;60008;50.826;6.896;2023-07-08T14:20:28;7.95;;;4.10;;
72132;SDS011;60008;50.826;6.896;2023-07-08T14:23:14;10.15;;;3.85;;
72132;SDS011;60008;50.826;6.896;2023-07-08T14:26:08;8.88;;;3.92;;
72132;SDS011;60008;50.826;6.896;2023-07-08T14:28:55;10.32;;;3.78;;
72132;SDS011;60008;50.826;6.896;2023-07-08T14:31:46;8.70;;;4.20;;
72132;SDS011;60008;50.826;6.896;2023-07-08T14:34:31;8.00;;;4.22;;
72132;SDS011;60008;50.826;6.896;2023-07-08T14:37:25;6.50;;;4.10;;
72132;SDS011;60008;50.826;6.896;2023-07-08T14:40:24;10.65;;;3.75;;
72132;SDS011;60008;50.826;6.896;2023-07-08T14:43:19;12.30;;;4.38;;
72132;SDS011;60008;50.826;6.896;2023-07-08T14:46:09;10.47;;;4.80;;
72132;SDS011;60008;50.826;6.896;2023-07-08T14:49:04;9.32;;;3.70;;
72132;SDS011;60008;50.826;6.896;2023-07-08T14:51:59;8.63;;;3.92;;
72132;SDS011;60008;50.826;6.896;2023-07-08T14:54:50;8.75;;;4.10;;
72132;SDS011;60008;50.826;6.896;2023-07-08T14:57:40;8.68;;;4.00;;
72132;SDS011;60008;50.826;6.896;2023-07-08T15:00:38;8.57;;;4.30;;
72132;SDS011;60008;50.826;6.896;2023-07-08T15:03:37;9.93;;;4.05;;
72132;SDS011;60008;50.826;6.896;2023-07-08T15:06:22;11.55;;;5.05;;
72132;SDS011;60008;50.826;6.896;2023-07-08T15:09:14;11.05;;;4.82;;
72132;SDS011;60008;50.826;6.896;2023-07-08T15:12:08;11.85;;;4.43;;
72132;SDS011;60008;50.826;6.896;2023-07-08T15:14:55;12.40;;;4.80;;
72132;SDS011;60008;50.826;6.896;2023-07-08T15:17:47;12.05;;;4.85;;
72132;SDS011;60008;50.826;6.896;2023-07-08T15:20:33;9.27;;;4.40;;
72132;SDS011;60008;50.826;6.896;2023-07-08T15:23:24;7.68;;;4.10;;
72132;SDS011;60008;50.826;6.896;2023-07-08T15:26:15;10.43;;;4.03;;
72132;SDS011;60008;50.826;6.896;2023-07-08T15:29:00;11.13;;;4.03;;
72132;SDS011;60008;50.826;6.896;2023-07-08T15:31:52;9.25;;;4.45;;
72132;SDS011;60008;50.826;6.896;2023-07-08T15:34:44;6.70;;;3.60;;
72132;SDS011;60008;50.826;6.896;2023-07-08T15:37:29;8.85;;;3.80;;
72132;SDS011;60008;50.826;6.896;2023-07-08T15:40:21;6.95;;;3.35;;
72132;SDS011;60008;50.826;6.896;2023-07-08T15:43:09;10.80;;;3.00;;
72132;SDS011;60008;50.826;6.896;2023-07-08T15:46:04;8.23;;;3.50;;
72132;SDS011;60008;50.826;6.896;2023-07-08T15:48:50;6.18;;;3.47;;
72132;SDS011;60008;50.826;6.896;2023-07-08T15:51:41;9.27;;;3.22;;
72132;SDS011;60008;50.826;6.896;2023-07-08T15:54:29;13.77;;;4.20;;
72132;SDS011;60008;50.826;6.896;2023-07-08T15:57:21;9.37;;;4.17;;
72132;SDS011;60008;50.826;6.896;2023-07-08T16:00:40;8.85;;;3.55;;
72132;SDS011;60008;50.826;6.896;2023-07-08T16:03:39;10.35;;;3.28;;
72132;SDS011;60008;50.826;6.896;2023-07-08T16:06:25;9.52;;;3.60;;
72132;SDS011;60008;50.826;6.896;2023-07-08T16:09:17;9.00;;;3.67;;
72132;SDS011;60008;50.826;6.896;2023-07-08T16:12:03;8.10;;;4.17;;
72132;SDS011;60008;50.826;6.896;2023-07-08T16:14:55;7.97;;;3.65;;
72132;SDS011;60008;50.826;6.896;2023-07-08T16:17:46;7.32;;;3.42;;
72132;SDS011;60008;50.826;6.896;2023-07-08T16:20:31;12.23;;;3.40;;
72132;SDS011;60008;50.826;6.896;2023-07-08T16:23:23;9.35;;;3.50;;
72132;SDS011;60008;50.826;6.896;2023-07-08T16:26:15;9.13;;;3.80;;
72132;SDS011;60008;50.826;6.896;2023-07-08T16:29:09;9.20;;;3.90;;
72132;SDS011;60008;50.826;6.896;2023-07-08T16:32:00;10.18;;;3.80;;
72132;SDS011;60008;50.826;6.896;2023-07-08T16:34:51;9.02;;;3.97;;
72132;SDS011;60008;50.826;6.896;2023-07-08T16:37:36;5.85;;;3.40;;
72132;SDS011;60008;50.826;6.896;2023-07-08T16:40:27;7.00;;;3.70;;
72132;SDS011;60008;50.826;6.896;2023-07-08T16:43:30;13.40;;;4.00;;
72132;SDS011;60008;50.826;6.896;2023-07-08T16:46:22;9.70;;;3.70;;
72132;SDS011;60008;50.826;6.896;2023-07-08T16:49:08;8.13;;;3.97;;
72132;SDS011;60008;50.826;6.896;2023-07-08T16:52:00;9.50;;;3.53;;
72132;SDS011;60008;50.826;6.896;2023-07-08T16:54:46;14.97;;;3.40;;
72132;SDS011;60008;50.826;6.896;2023-07-08T16:57:37;6.63;;;3.20;;
72132;SDS011;60008;50.826;6.896;2023-07-08T17:00:29;7.50;;;3.83;;
72132;SDS011;60008;50.826;6.896;2023-07-08T17:03:21;8.45;;;4.15;;
72132;SDS011;60008;50.826;6.896;2023-07-08T17:06:07;7.20;;;3.53;;
72132;SDS011;60008;50.826;6.896;2023-07-08T17:08:59;8.47;;;4.27;;
72132;SDS011;60008;50.826;6.896;2023-07-08T17:11:49;11.70;;;3.60;;
72132;SDS011;60008;50.826;6.896;2023-07-08T17:14:40;7.68;;;3.97;;
72132;SDS011;60008;50.826;6.896;2023-07-08T17:17:26;8.25;;;3.45;;
72132;SDS011;60008;50.826;6.896;2023-07-08T17:20:18;9.25;;;4.03;;
72132;SDS011;60008;50.826;6.896;2023-07-08T17:23:11;11.13;;;3.70;;
72132;SDS011;60008;50.826;6.896;2023-07-08T17:26:03;7.85;;;3.30;;
72132;SDS011;60008;50.826;6.896;2023-07-08T17:28:48;7.38;;;3.60;;
72132;SDS011;60008;50.826;6.896;2023-07-08T17:31:40;9.52;;;4.03;;
72132;SDS011;60008;50.826;6.896;2023-07-08T17:34:32;8.90;;;3.67;;
72132;SDS011;60008;50.826;6.896;2023-07-08T17:37:23;8.57;;;3.70;;
72132;SDS011;60008;50.826;6.896;2023-07-08T17:40:12;7.05;;;3.25;;
72132;SDS011;60008;50.826;6.896;2023-07-08T17:43:05;12.82;;;3.42;;
72132;SDS011;60008;50.826;6.896;2023-07-08T17:45:51;13.13;;;3.42;;
72132;SDS011;60008;50.826;6.896;2023-07-08T17:48:43;9.98;;;3.58;;
72132;SDS011;60008;50.826;6.896;2023-07-08T17:51:32;7.77;;;4.10;;
72132;SDS011;60008;50.826;6.896;2023-07-08T17:54:25;6.72;;;3.40;;
72132;SDS011;60008;50.826;6.896;2023-07-08T17:57:17;7.22;;;3.47;;